sensor_id;sensor_type;location;lat;lon;timestamp;P1;durP1;ratioP1;P2;durP2;ratioP2
26718;SDS011;14326;50.794;6.060;2023-03-05T00:01:40;17.05;;;3.90;;
26718;SDS011;14326;50.794;6.060;2023-03-05T00:04:09;15.23;;;4.45;;
26718;SDS011;14326;50.794;6.060;2023-03-05T00:06:39;11.93;;;3.25;;
26718;SDS011;14326;50.794;6.060;2023-03-05T00:09:08;15.43;;;2.38;;
26718;SDS011;14326;50.794;6.060;2023-03-05T00:11:58;11.27;;;2.80;;
26718;SDS011;14326;50.794;6.060;2023-03-05T00:14:48;10.77;;;2.20;;
26718;SDS011;14326;50.794;6.060;2023-03-05T00:17:15;17.02;;;2.85;;
26718;SDS011;14326;50.794;6.060;2023-03-05T00:19:44;12.45;;;2.88;;
26718;SDS011;14326;50.794;6.060;2023-03-05T00:22:18;14.15;;;2.55;;
26718;SDS011;14326;50.794;6.060;2023-03-05T00:25:06;11.75;;;2.35;;
26718;SDS011;14326;50.794;6.060;2023-03-05T00:28:03;12.25;;;2.75;;
26718;SDS011;14326;50.794;6.060;2023-03-05T00:30:30;13.88;;;2.40;;
26718;SDS011;14326;50.794;6.060;2023-03-05T00:32:57;16.58;;;2.63;;
26718;SDS011;14326;50.794;6.060;2023-03-05T00:35:24;10.50;;;2.50;;
26718;SDS011;14326;50.794;6.060;2023-03-05T00:37:52;11.07;;;2.60;;
26718;SDS011;14326;50.794;6.060;2023-03-05T00:40:19;12.43;;;2.60;;
26718;SDS011;14326;50.794;6.060;2023-03-05T00:42:46;9.82;;;2.58;;
26718;SDS011;14326;50.794;6.060;2023-03-05T00:45:13;12.93;;;2.42;;
26718;SDS011;14326;50.794;6.060;2023-03-05T00:47:40;15.20;;;2.70;;
26718;SDS011;14326;50.794;6.060;2023-03-05T00:56:26;10.23;;;2.30;;
26718;SDS011;14326;50.794;6.060;2023-03-05T00:58:59;5.45;;;1.85;;
26718;SDS011;14326;50.794;6.060;2023-03-05T01:01:46;13.02;;;2.78;;
26718;SDS011;14326;50.794;6.060;2023-03-05T01:04:43;11.27;;;2.47;;
26718;SDS011;14326;50.794;6.060;2023-03-05T01:07:11;7.95;;;2.47;;
26718;SDS011;14326;50.794;6.060;2023-03-05T01:12:29;10.15;;;2.08;;
26718;SDS011;14326;50.794;6.060;2023-03-05T01:18:11;12.82;;;2.80;;
26718;SDS011;14326;50.794;6.060;2023-03-05T01:20:38;12.80;;;2.38;;
26718;SDS011;14326;50.794;6.060;2023-03-05T01:23:04;15.88;;;2.58;;
26718;SDS011;14326;50.794;6.060;2023-03-05T01:25:32;11.57;;;3.08;;
26718;SDS011;14326;50.794;6.060;2023-03-05T01:28:01;12.82;;;3.08;;
26718;SDS011;14326;50.794;6.060;2023-03-05T01:30:28;16.30;;;3.40;;
26718;SDS011;14326;50.794;6.060;2023-03-05T01:32:54;14.10;;;3.35;;
26718;SDS011;14326;50.794;6.060;2023-03-05T01:35:22;16.00;;;3.10;;
26718;SDS011;14326;50.794;6.060;2023-03-05T01:37:49;18.83;;;3.63;;
26718;SDS011;14326;50.794;6.060;2023-03-05T01:40:18;19.10;;;4.22;;
26718;SDS011;14326;50.794;6.060;2023-03-05T01:42:46;18.38;;;3.53;;
26718;SDS011;14326;50.794;6.060;2023-03-05T01:45:15;15.10;;;3.63;;
26718;SDS011;14326;50.794;6.060;2023-03-05T01:47:43;16.42;;;3.90;;
26718;SDS011;14326;50.794;6.060;2023-03-05T01:50:12;11.70;;;2.83;;
26718;SDS011;14326;50.794;6.060;2023-03-05T01:52:44;12.98;;;3.28;;
26718;SDS011;14326;50.794;6.060;2023-03-05T01:55:35;16.10;;;3.05;;
26718;SDS011;14326;50.794;6.060;2023-03-05T02:00:57;21.30;;;3.67;;
26718;SDS011;14326;50.794;6.060;2023-03-05T02:03:24;20.50;;;3.75;;
26718;SDS011;14326;50.794;6.060;2023-03-05T02:05:52;15.75;;;3.88;;
26718;SDS011;14326;50.794;6.060;2023-03-05T02:08:19;17.85;;;3.80;;
26718;SDS011;14326;50.794;6.060;2023-03-05T02:13:35;12.20;;;3.30;;
26718;SDS011;14326;50.794;6.060;2023-03-05T02:16:05;17.60;;;4.13;;
26718;SDS011;14326;50.794;6.060;2023-03-05T02:18:32;18.98;;;4.05;;
26718;SDS011;14326;50.794;6.060;2023-03-05T02:21:01;20.85;;;3.60;;
26718;SDS011;14326;50.794;6.060;2023-03-05T02:23:34;15.50;;;3.38;;
26718;SDS011;14326;50.794;6.060;2023-03-05T02:32:26;15.18;;;2.90;;
26718;SDS011;14326;50.794;6.060;2023-03-05T02:38:07;16.75;;;3.70;;
26718;SDS011;14326;50.794;6.060;2023-03-05T02:40:33;14.45;;;2.72;;
26718;SDS011;14326;50.794;6.060;2023-03-05T02:43:00;14.43;;;3.22;;
26718;SDS011;14326;50.794;6.060;2023-03-05T02:45:27;17.17;;;3.70;;
26718;SDS011;14326;50.794;6.060;2023-03-05T02:47:54;19.05;;;3.30;;
26718;SDS011;14326;50.794;6.060;2023-03-05T02:50:26;16.52;;;3.42;;
26718;SDS011;14326;50.794;6.060;2023-03-05T02:53:20;19.27;;;3.78;;
26718;SDS011;14326;50.794;6.060;2023-03-05T02:58:17;16.65;;;3.33;;
26718;SDS011;14326;50.794;6.060;2023-03-05T03:00:51;18.48;;;4.05;;
26718;SDS011;14326;50.794;6.060;2023-03-05T03:03:37;19.80;;;4.30;;
26718;SDS011;14326;50.794;6.060;2023-03-05T03:06:04;16.55;;;3.80;;
26718;SDS011;14326;50.794;6.060;2023-03-05T03:14:49;16.58;;;4.00;;
26718;SDS011;14326;50.794;6.060;2023-03-05T03:17:16;17.50;;;3.95;;
26718;SDS011;14326;50.794;6.060;2023-03-05T03:19:44;15.00;;;4.32;;
26718;SDS011;14326;50.794;6.060;2023-03-05T03:22:12;18.23;;;4.10;;
26718;SDS011;14326;50.794;6.060;2023-03-05T03:24:41;15.02;;;3.85;;
26718;SDS011;14326;50.794;6.060;2023-03-05T03:27:08;24.77;;;5.30;;
26718;SDS011;14326;50.794;6.060;2023-03-05T03:32:26;18.27;;;4.30;;
26718;SDS011;14326;50.794;6.060;2023-03-05T03:34:53;17.63;;;4.10;;
26718;SDS011;14326;50.794;6.060;2023-03-05T03:37:20;19.55;;;5.10;;
26718;SDS011;14326;50.794;6.060;2023-03-05T03:39:46;19.02;;;5.32;;
26718;SDS011;14326;50.794;6.060;2023-03-05T03:42:15;22.05;;;4.93;;
26718;SDS011;14326;50.794;6.060;2023-03-05T03:44:43;13.05;;;3.83;;
26718;SDS011;14326;50.794;6.060;2023-03-05T03:47:11;19.10;;;5.03;;
26718;SDS011;14326;50.794;6.060;2023-03-05T03:49:38;21.17;;;4.68;;
26718;SDS011;14326;50.794;6.060;2023-03-05T03:52:04;17.80;;;4.55;;
26718;SDS011;14326;50.794;6.060;2023-03-05T03:54:31;16.67;;;4.43;;
26718;SDS011;14326;50.794;6.060;2023-03-05T03:56:58;21.40;;;5.65;;
26718;SDS011;14326;50.794;6.060;2023-03-05T03:59:25;23.10;;;5.10;;
26718;SDS011;14326;50.794;6.060;2023-03-05T04:01:52;17.25;;;4.28;;
26718;SDS011;14326;50.794;6.060;2023-03-05T04:04:20;19.45;;;4.88;;
26718;SDS011;14326;50.794;6.060;2023-03-05T04:06:47;16.80;;;5.03;;
26718;SDS011;14326;50.794;6.060;2023-03-05T04:09:14;18.80;;;4.63;;
26718;SDS011;14326;50.794;6.060;2023-03-05T04:11:40;23.33;;;4.70;;
26718;SDS011;14326;50.794;6.060;2023-03-05T04:14:07;18.50;;;5.00;;
26718;SDS011;14326;50.794;6.060;2023-03-05T04:16:34;20.73;;;5.22;;
26718;SDS011;14326;50.794;6.060;2023-03-05T04:19:00;21.75;;;5.18;;
26718;SDS011;14326;50.794;6.060;2023-03-05T04:21:29;21.00;;;5.20;;
26718;SDS011;14326;50.794;6.060;2023-03-05T04:24:01;23.05;;;5.35;;
26718;SDS011;14326;50.794;6.060;2023-03-05T04:26:37;22.40;;;5.00;;
26718;SDS011;14326;50.794;6.060;2023-03-05T04:29:04;25.83;;;5.55;;
26718;SDS011;14326;50.794;6.060;2023-03-05T04:31:30;22.70;;;5.85;;
26718;SDS011;14326;50.794;6.060;2023-03-05T04:33:58;19.20;;;5.22;;
26718;SDS011;14326;50.794;6.060;2023-03-05T04:36:24;20.50;;;4.72;;
26718;SDS011;14326;50.794;6.060;2023-03-05T04:38:52;18.02;;;5.38;;
26718;SDS011;14326;50.794;6.060;2023-03-05T04:41:19;18.55;;;5.03;;
26718;SDS011;14326;50.794;6.060;2023-03-05T04:43:46;19.67;;;4.47;;
26718;SDS011;14326;50.794;6.060;2023-03-05T04:46:12;20.70;;;4.88;;
26718;SDS011;14326;50.794;6.060;2023-03-05T04:48:41;18.88;;;4.95;;
26718;SDS011;14326;50.794;6.060;2023-03-05T04:51:33;17.92;;;4.78;;
26718;SDS011;14326;50.794;6.060;2023-03-05T04:54:18;20.65;;;5.30;;
26718;SDS011;14326;50.794;6.060;2023-03-05T04:57:04;19.08;;;5.10;;
26718;SDS011;14326;50.794;6.060;2023-03-05T04:59:31;18.17;;;4.95;;
26718;SDS011;14326;50.794;6.060;2023-03-05T05:01:57;20.83;;;4.78;;
26718;SDS011;14326;50.794;6.060;2023-03-05T05:04:24;22.00;;;5.65;;
26718;SDS011;14326;50.794;6.060;2023-03-05T05:06:53;20.42;;;5.13;;
26718;SDS011;14326;50.794;6.060;2023-03-05T05:09:21;11.80;;;3.50;;
26718;SDS011;14326;50.794;6.060;2023-03-05T05:11:48;19.23;;;4.60;;
26718;SDS011;14326;50.794;6.060;2023-03-05T05:14:15;19.73;;;4.50;;
26718;SDS011;14326;50.794;6.060;2023-03-05T05:16:42;18.35;;;4.60;;
26718;SDS011;14326;50.794;6.060;2023-03-05T05:19:09;16.92;;;4.30;;
26718;SDS011;14326;50.794;6.060;2023-03-05T05:21:35;20.20;;;5.50;;
26718;SDS011;14326;50.794;6.060;2023-03-05T05:24:02;23.65;;;5.28;;
26718;SDS011;14326;50.794;6.060;2023-03-05T05:26:30;16.65;;;4.90;;
26718;SDS011;14326;50.794;6.060;2023-03-05T05:28:57;19.90;;;4.82;;
26718;SDS011;14326;50.794;6.060;2023-03-05T05:31:24;19.42;;;5.28;;
26718;SDS011;14326;50.794;6.060;2023-03-05T05:33:50;16.83;;;4.13;;
26718;SDS011;14326;50.794;6.060;2023-03-05T05:36:17;15.13;;;4.75;;
26718;SDS011;14326;50.794;6.060;2023-03-05T05:38:46;17.20;;;4.72;;
26718;SDS011;14326;50.794;6.060;2023-03-05T05:41:14;18.05;;;4.13;;
26718;SDS011;14326;50.794;6.060;2023-03-05T05:43:44;18.10;;;4.57;;
26718;SDS011;14326;50.794;6.060;2023-03-05T05:46:12;17.80;;;4.18;;
26718;SDS011;14326;50.794;6.060;2023-03-05T05:48:40;17.13;;;3.03;;
26718;SDS011;14326;50.794;6.060;2023-03-05T05:51:08;19.92;;;4.63;;
26718;SDS011;14326;50.794;6.060;2023-03-05T05:53:36;25.10;;;5.20;;
26718;SDS011;14326;50.794;6.060;2023-03-05T05:56:03;16.98;;;5.18;;
26718;SDS011;14326;50.794;6.060;2023-03-05T05:58:30;19.80;;;4.47;;
26718;SDS011;14326;50.794;6.060;2023-03-05T06:00:58;20.45;;;4.72;;
26718;SDS011;14326;50.794;6.060;2023-03-05T06:03:25;17.60;;;4.38;;
26718;SDS011;14326;50.794;6.060;2023-03-05T06:05:52;18.90;;;4.53;;
26718;SDS011;14326;50.794;6.060;2023-03-05T06:08:19;27.05;;;5.68;;
26718;SDS011;14326;50.794;6.060;2023-03-05T06:10:52;17.02;;;4.35;;
26718;SDS011;14326;50.794;6.060;2023-03-05T06:13:19;19.35;;;4.40;;
26718;SDS011;14326;50.794;6.060;2023-03-05T06:15:53;22.95;;;5.32;;
26718;SDS011;14326;50.794;6.060;2023-03-05T06:18:22;25.90;;;4.80;;
26718;SDS011;14326;50.794;6.060;2023-03-05T06:20:52;21.98;;;5.05;;
26718;SDS011;14326;50.794;6.060;2023-03-05T06:23:20;21.67;;;4.85;;
26718;SDS011;14326;50.794;6.060;2023-03-05T06:25:46;19.83;;;4.82;;
26718;SDS011;14326;50.794;6.060;2023-03-05T06:28:13;19.50;;;5.15;;
26718;SDS011;14326;50.794;6.060;2023-03-05T06:30:40;22.15;;;4.13;;
26718;SDS011;14326;50.794;6.060;2023-03-05T06:33:06;18.05;;;4.95;;
26718;SDS011;14326;50.794;6.060;2023-03-05T06:38:26;20.92;;;4.88;;
26718;SDS011;14326;50.794;6.060;2023-03-05T06:40:53;21.25;;;6.05;;
26718;SDS011;14326;50.794;6.060;2023-03-05T06:43:20;21.50;;;5.15;;
26718;SDS011;14326;50.794;6.060;2023-03-05T06:45:46;23.17;;;6.15;;
26718;SDS011;14326;50.794;6.060;2023-03-05T06:48:13;20.75;;;5.25;;
26718;SDS011;14326;50.794;6.060;2023-03-05T06:50:40;19.38;;;6.15;;
26718;SDS011;14326;50.794;6.060;2023-03-05T06:53:08;23.35;;;6.05;;
26718;SDS011;14326;50.794;6.060;2023-03-05T06:55:41;20.58;;;5.38;;
26718;SDS011;14326;50.794;6.060;2023-03-05T06:58:41;20.95;;;5.90;;
26718;SDS011;14326;50.794;6.060;2023-03-05T07:01:09;21.80;;;5.38;;
26718;SDS011;14326;50.794;6.060;2023-03-05T07:03:36;19.80;;;5.07;;
26718;SDS011;14326;50.794;6.060;2023-03-05T07:06:03;20.17;;;4.88;;
26718;SDS011;14326;50.794;6.060;2023-03-05T07:08:32;20.38;;;5.65;;
26718;SDS011;14326;50.794;6.060;2023-03-05T07:10:59;19.27;;;4.45;;
26718;SDS011;14326;50.794;6.060;2023-03-05T07:13:26;15.65;;;4.07;;
26718;SDS011;14326;50.794;6.060;2023-03-05T07:15:54;16.20;;;3.67;;
26718;SDS011;14326;50.794;6.060;2023-03-05T07:18:20;20.80;;;4.38;;
26718;SDS011;14326;50.794;6.060;2023-03-05T07:20:47;13.85;;;3.60;;
26718;SDS011;14326;50.794;6.060;2023-03-05T07:23:14;17.48;;;4.18;;
26718;SDS011;14326;50.794;6.060;2023-03-05T07:25:41;15.07;;;4.18;;
26718;SDS011;14326;50.794;6.060;2023-03-05T07:28:08;15.20;;;3.95;;
26718;SDS011;14326;50.794;6.060;2023-03-05T07:30:36;17.45;;;4.50;;
26718;SDS011;14326;50.794;6.060;2023-03-05T07:33:18;17.52;;;4.43;;
26718;SDS011;14326;50.794;6.060;2023-03-05T07:35:45;18.35;;;4.93;;
26718;SDS011;14326;50.794;6.060;2023-03-05T07:38:12;16.02;;;3.80;;
26718;SDS011;14326;50.794;6.060;2023-03-05T07:40:39;18.00;;;4.15;;
26718;SDS011;14326;50.794;6.060;2023-03-05T07:43:10;18.30;;;5.13;;
26718;SDS011;14326;50.794;6.060;2023-03-05T07:46:05;15.45;;;4.25;;
26718;SDS011;14326;50.794;6.060;2023-03-05T07:48:33;18.83;;;4.47;;
26718;SDS011;14326;50.794;6.060;2023-03-05T07:51:00;16.48;;;4.13;;
26718;SDS011;14326;50.794;6.060;2023-03-05T07:53:33;17.95;;;4.45;;
26718;SDS011;14326;50.794;6.060;2023-03-05T07:56:12;16.30;;;4.53;;
26718;SDS011;14326;50.794;6.060;2023-03-05T07:58:57;18.23;;;4.32;;
26718;SDS011;14326;50.794;6.060;2023-03-05T08:01:24;16.75;;;4.28;;
26718;SDS011;14326;50.794;6.060;2023-03-05T08:03:51;17.95;;;3.75;;
26718;SDS011;14326;50.794;6.060;2023-03-05T08:06:17;25.60;;;4.40;;
26718;SDS011;14326;50.794;6.060;2023-03-05T08:08:44;18.65;;;5.00;;
26718;SDS011;14326;50.794;6.060;2023-03-05T08:11:11;23.13;;;5.22;;
26718;SDS011;14326;50.794;6.060;2023-03-05T08:13:39;18.42;;;4.45;;
26718;SDS011;14326;50.794;6.060;2023-03-05T08:16:10;17.10;;;4.50;;
26718;SDS011;14326;50.794;6.060;2023-03-05T08:18:44;16.73;;;4.93;;
26718;SDS011;14326;50.794;6.060;2023-03-05T08:21:15;14.80;;;4.20;;
26718;SDS011;14326;50.794;6.060;2023-03-05T08:23:44;19.63;;;4.80;;
26718;SDS011;14326;50.794;6.060;2023-03-05T08:26:11;16.77;;;4.88;;
26718;SDS011;14326;50.794;6.060;2023-03-05T08:28:39;15.98;;;4.18;;
26718;SDS011;14326;50.794;6.060;2023-03-05T08:31:08;19.15;;;5.25;;
26718;SDS011;14326;50.794;6.060;2023-03-05T08:36:05;16.70;;;4.35;;
26718;SDS011;14326;50.794;6.060;2023-03-05T08:38:33;19.67;;;4.75;;
26718;SDS011;14326;50.794;6.060;2023-03-05T08:41:00;24.77;;;6.65;;
26718;SDS011;14326;50.794;6.060;2023-03-05T08:43:28;25.73;;;6.40;;
26718;SDS011;14326;50.794;6.060;2023-03-05T08:45:55;26.50;;;6.85;;
26718;SDS011;14326;50.794;6.060;2023-03-05T08:48:23;23.23;;;6.72;;
26718;SDS011;14326;50.794;6.060;2023-03-05T08:50:49;22.00;;;6.95;;
26718;SDS011;14326;50.794;6.060;2023-03-05T08:53:17;24.13;;;8.00;;
26718;SDS011;14326;50.794;6.060;2023-03-05T08:55:51;24.17;;;7.65;;
26718;SDS011;14326;50.794;6.060;2023-03-05T08:58:19;23.33;;;7.45;;
26718;SDS011;14326;50.794;6.060;2023-03-05T09:00:45;30.45;;;8.60;;
26718;SDS011;14326;50.794;6.060;2023-03-05T09:03:12;25.63;;;7.80;;
26718;SDS011;14326;50.794;6.060;2023-03-05T09:05:40;23.77;;;8.15;;
26718;SDS011;14326;50.794;6.060;2023-03-05T09:08:07;22.45;;;6.97;;
26718;SDS011;14326;50.794;6.060;2023-03-05T09:10:34;20.52;;;7.03;;
26718;SDS011;14326;50.794;6.060;2023-03-05T09:13:01;22.10;;;6.72;;
26718;SDS011;14326;50.794;6.060;2023-03-05T09:15:28;23.55;;;7.30;;
26718;SDS011;14326;50.794;6.060;2023-03-05T09:17:55;21.75;;;6.53;;
26718;SDS011;14326;50.794;6.060;2023-03-05T09:20:22;24.95;;;7.07;;
26718;SDS011;14326;50.794;6.060;2023-03-05T09:22:50;20.80;;;6.93;;
26718;SDS011;14326;50.794;6.060;2023-03-05T09:25:17;23.50;;;6.63;;
26718;SDS011;14326;50.794;6.060;2023-03-05T09:27:44;21.00;;;6.60;;
26718;SDS011;14326;50.794;6.060;2023-03-05T09:30:11;20.42;;;7.15;;
26718;SDS011;14326;50.794;6.060;2023-03-05T09:32:39;26.52;;;8.05;;
26718;SDS011;14326;50.794;6.060;2023-03-05T09:35:06;27.00;;;8.60;;
26718;SDS011;14326;50.794;6.060;2023-03-05T09:37:34;24.90;;;8.85;;
26718;SDS011;14326;50.794;6.060;2023-03-05T09:40:02;26.95;;;9.00;;
26718;SDS011;14326;50.794;6.060;2023-03-05T09:42:44;22.25;;;9.60;;
26718;SDS011;14326;50.794;6.060;2023-03-05T09:45:21;27.23;;;11.50;;
26718;SDS011;14326;50.794;6.060;2023-03-05T09:47:53;33.83;;;11.57;;
26718;SDS011;14326;50.794;6.060;2023-03-05T09:50:32;31.70;;;12.15;;
26718;SDS011;14326;50.794;6.060;2023-03-05T09:53:04;29.63;;;12.85;;
26718;SDS011;14326;50.794;6.060;2023-03-05T09:55:42;27.20;;;12.70;;
26718;SDS011;14326;50.794;6.060;2023-03-05T09:58:12;28.65;;;12.55;;
26718;SDS011;14326;50.794;6.060;2023-03-05T10:00:42;28.17;;;12.55;;
26718;SDS011;14326;50.794;6.060;2023-03-05T10:03:13;28.30;;;12.57;;
26718;SDS011;14326;50.794;6.060;2023-03-05T10:08:44;32.88;;;11.98;;
26718;SDS011;14326;50.794;6.060;2023-03-05T10:11:21;27.52;;;9.55;;
26718;SDS011;14326;50.794;6.060;2023-03-05T10:13:56;28.80;;;10.37;;
26718;SDS011;14326;50.794;6.060;2023-03-05T10:19:27;17.88;;;6.93;;
26718;SDS011;14326;50.794;6.060;2023-03-05T10:22:14;23.70;;;9.43;;
26718;SDS011;14326;50.794;6.060;2023-03-05T10:24:49;24.88;;;9.88;;
26718;SDS011;14326;50.794;6.060;2023-03-05T10:27:32;19.88;;;8.40;;
26718;SDS011;14326;50.794;6.060;2023-03-05T10:30:08;23.25;;;9.18;;
26718;SDS011;14326;50.794;6.060;2023-03-05T10:32:48;18.52;;;7.38;;
26718;SDS011;14326;50.794;6.060;2023-03-05T10:35:28;23.30;;;7.18;;
26718;SDS011;14326;50.794;6.060;2023-03-05T10:38:18;24.08;;;7.60;;
26718;SDS011;14326;50.794;6.060;2023-03-05T10:41:06;19.13;;;7.30;;
26718;SDS011;14326;50.794;6.060;2023-03-05T10:43:45;22.38;;;7.63;;
26718;SDS011;14326;50.794;6.060;2023-03-05T10:46:18;24.92;;;6.47;;
26718;SDS011;14326;50.794;6.060;2023-03-05T10:51:47;20.35;;;6.93;;
26718;SDS011;14326;50.794;6.060;2023-03-05T10:54:26;18.77;;;6.40;;
26718;SDS011;14326;50.794;6.060;2023-03-05T11:00:21;21.77;;;7.65;;
26718;SDS011;14326;50.794;6.060;2023-03-05T11:06:03;18.45;;;7.03;;
26718;SDS011;14326;50.794;6.060;2023-03-05T11:08:55;18.70;;;7.03;;
26718;SDS011;14326;50.794;6.060;2023-03-05T11:11:39;22.55;;;6.63;;
26718;SDS011;14326;50.794;6.060;2023-03-05T11:17:32;18.73;;;6.18;;
26718;SDS011;14326;50.794;6.060;2023-03-05T11:20:22;19.25;;;6.25;;
26718;SDS011;14326;50.794;6.060;2023-03-05T11:23:09;15.65;;;5.63;;
26718;SDS011;14326;50.794;6.060;2023-03-05T11:25:49;14.07;;;5.30;;
26718;SDS011;14326;50.794;6.060;2023-03-05T11:28:22;17.08;;;6.32;;
26718;SDS011;14326;50.794;6.060;2023-03-05T11:30:54;16.67;;;5.75;;
26718;SDS011;14326;50.794;6.060;2023-03-05T11:33:25;13.50;;;4.97;;
26718;SDS011;14326;50.794;6.060;2023-03-05T11:35:53;13.35;;;4.78;;
26718;SDS011;14326;50.794;6.060;2023-03-05T11:38:49;14.98;;;4.85;;
26718;SDS011;14326;50.794;6.060;2023-03-05T11:41:19;14.27;;;4.28;;
26718;SDS011;14326;50.794;6.060;2023-03-05T11:43:53;16.40;;;4.68;;
26718;SDS011;14326;50.794;6.060;2023-03-05T11:46:21;16.45;;;5.38;;
26718;SDS011;14326;50.794;6.060;2023-03-05T11:48:49;14.82;;;5.50;;
26718;SDS011;14326;50.794;6.060;2023-03-05T11:51:20;15.18;;;5.22;;
26718;SDS011;14326;50.794;6.060;2023-03-05T11:53:53;15.25;;;5.32;;
26718;SDS011;14326;50.794;6.060;2023-03-05T11:56:24;19.25;;;5.47;;
26718;SDS011;14326;50.794;6.060;2023-03-05T11:58:53;17.15;;;5.75;;
26718;SDS011;14326;50.794;6.060;2023-03-05T12:01:26;15.75;;;5.32;;
26718;SDS011;14326;50.794;6.060;2023-03-05T12:03:57;15.32;;;5.55;;
26718;SDS011;14326;50.794;6.060;2023-03-05T12:06:27;15.60;;;5.75;;
26718;SDS011;14326;50.794;6.060;2023-03-05T12:08:59;15.02;;;5.72;;
26718;SDS011;14326;50.794;6.060;2023-03-05T12:11:31;17.60;;;6.10;;
26718;SDS011;14326;50.794;6.060;2023-03-05T12:14:00;16.63;;;5.78;;
26718;SDS011;14326;50.794;6.060;2023-03-05T12:16:36;19.20;;;6.18;;
26718;SDS011;14326;50.794;6.060;2023-03-05T12:19:17;16.38;;;5.47;;
26718;SDS011;14326;50.794;6.060;2023-03-05T12:21:55;15.63;;;5.85;;
26718;SDS011;14326;50.794;6.060;2023-03-05T12:27:14;20.15;;;6.82;;
26718;SDS011;14326;50.794;6.060;2023-03-05T12:29:46;19.30;;;6.70;;
26718;SDS011;14326;50.794;6.060;2023-03-05T12:35:32;21.58;;;6.80;;
26718;SDS011;14326;50.794;6.060;2023-03-05T12:38:12;17.50;;;5.82;;
26718;SDS011;14326;50.794;6.060;2023-03-05T12:44:09;19.08;;;7.75;;
26718;SDS011;14326;50.794;6.060;2023-03-05T12:46:44;21.10;;;7.35;;
26718;SDS011;14326;50.794;6.060;2023-03-05T12:49:36;19.88;;;7.20;;
26718;SDS011;14326;50.794;6.060;2023-03-05T12:52:11;22.88;;;8.55;;
26718;SDS011;14326;50.794;6.060;2023-03-05T12:55:03;22.75;;;8.13;;
26718;SDS011;14326;50.794;6.060;2023-03-05T12:57:42;18.08;;;7.65;;
26718;SDS011;14326;50.794;6.060;2023-03-05T13:00:13;21.63;;;7.63;;
26718;SDS011;14326;50.794;6.060;2023-03-05T13:02:47;17.90;;;7.22;;
26718;SDS011;14326;50.794;6.060;2023-03-05T13:05:20;19.50;;;7.15;;
26718;SDS011;14326;50.794;6.060;2023-03-05T13:07:52;19.40;;;7.15;;
26718;SDS011;14326;50.794;6.060;2023-03-05T13:10:33;20.25;;;7.57;;
26718;SDS011;14326;50.794;6.060;2023-03-05T13:13:00;19.48;;;7.45;;
26718;SDS011;14326;50.794;6.060;2023-03-05T13:15:27;19.25;;;6.88;;
26718;SDS011;14326;50.794;6.060;2023-03-05T13:17:55;17.40;;;6.72;;
26718;SDS011;14326;50.794;6.060;2023-03-05T13:20:24;16.65;;;6.53;;
26718;SDS011;14326;50.794;6.060;2023-03-05T13:23:03;17.98;;;6.40;;
26718;SDS011;14326;50.794;6.060;2023-03-05T13:25:38;18.02;;;6.72;;
26718;SDS011;14326;50.794;6.060;2023-03-05T13:28:08;17.17;;;6.22;;
26718;SDS011;14326;50.794;6.060;2023-03-05T13:30:37;16.25;;;5.97;;
26718;SDS011;14326;50.794;6.060;2023-03-05T13:33:04;17.77;;;6.35;;
26718;SDS011;14326;50.794;6.060;2023-03-05T13:35:31;17.15;;;5.78;;
26718;SDS011;14326;50.794;6.060;2023-03-05T13:37:58;17.08;;;6.15;;
26718;SDS011;14326;50.794;6.060;2023-03-05T13:40:29;17.00;;;6.63;;
26718;SDS011;14326;50.794;6.060;2023-03-05T13:43:07;16.40;;;6.03;;
26718;SDS011;14326;50.794;6.060;2023-03-05T13:45:36;17.00;;;6.38;;
26718;SDS011;14326;50.794;6.060;2023-03-05T13:48:04;16.05;;;6.18;;
26718;SDS011;14326;50.794;6.060;2023-03-05T13:50:32;18.42;;;6.82;;
26718;SDS011;14326;50.794;6.060;2023-03-05T13:53:15;18.42;;;6.80;;
26718;SDS011;14326;50.794;6.060;2023-03-05T13:55:46;17.13;;;6.07;;
26718;SDS011;14326;50.794;6.060;2023-03-05T14:01:13;16.90;;;6.20;;
26718;SDS011;14326;50.794;6.060;2023-03-05T14:03:48;18.27;;;6.38;;
26718;SDS011;14326;50.794;6.060;2023-03-05T14:06:16;19.10;;;6.85;;
26718;SDS011;14326;50.794;6.060;2023-03-05T14:08:47;16.50;;;6.28;;
26718;SDS011;14326;50.794;6.060;2023-03-05T14:11:17;18.58;;;6.70;;
26718;SDS011;14326;50.794;6.060;2023-03-05T14:13:45;18.08;;;6.55;;
26718;SDS011;14326;50.794;6.060;2023-03-05T14:16:14;20.75;;;6.70;;
26718;SDS011;14326;50.794;6.060;2023-03-05T14:18:54;16.52;;;6.68;;
26718;SDS011;14326;50.794;6.060;2023-03-05T14:21:22;18.55;;;6.45;;
26718;SDS011;14326;50.794;6.060;2023-03-05T14:23:50;20.30;;;6.50;;
26718;SDS011;14326;50.794;6.060;2023-03-05T14:29:10;18.60;;;6.47;;
26718;SDS011;14326;50.794;6.060;2023-03-05T14:31:46;17.00;;;6.43;;
26718;SDS011;14326;50.794;6.060;2023-03-05T14:34:17;19.83;;;6.40;;
26718;SDS011;14326;50.794;6.060;2023-03-05T14:36:47;16.85;;;6.93;;
26718;SDS011;14326;50.794;6.060;2023-03-05T14:39:28;17.00;;;6.68;;
26718;SDS011;14326;50.794;6.060;2023-03-05T14:42:19;20.27;;;6.97;;
26718;SDS011;14326;50.794;6.060;2023-03-05T14:44:51;19.25;;;6.93;;
26718;SDS011;14326;50.794;6.060;2023-03-05T14:47:19;18.52;;;6.72;;
26718;SDS011;14326;50.794;6.060;2023-03-05T14:49:46;16.60;;;6.72;;
26718;SDS011;14326;50.794;6.060;2023-03-05T14:52:13;17.63;;;7.18;;
26718;SDS011;14326;50.794;6.060;2023-03-05T14:54:41;18.17;;;6.40;;
26718;SDS011;14326;50.794;6.060;2023-03-05T14:57:09;18.17;;;5.75;;
26718;SDS011;14326;50.794;6.060;2023-03-05T14:59:41;15.57;;;5.63;;
26718;SDS011;14326;50.794;6.060;2023-03-05T15:02:10;17.50;;;5.80;;
26718;SDS011;14326;50.794;6.060;2023-03-05T15:04:40;15.35;;;5.45;;
26718;SDS011;14326;50.794;6.060;2023-03-05T15:07:08;15.70;;;5.82;;
26718;SDS011;14326;50.794;6.060;2023-03-05T15:09:40;15.23;;;5.18;;
26718;SDS011;14326;50.794;6.060;2023-03-05T15:12:07;19.20;;;5.35;;
26718;SDS011;14326;50.794;6.060;2023-03-05T15:14:35;13.20;;;4.35;;
26718;SDS011;14326;50.794;6.060;2023-03-05T15:17:03;12.43;;;4.57;;
26718;SDS011;14326;50.794;6.060;2023-03-05T15:19:30;15.23;;;4.82;;
26718;SDS011;14326;50.794;6.060;2023-03-05T15:21:56;13.60;;;4.78;;
26718;SDS011;14326;50.794;6.060;2023-03-05T15:24:23;11.45;;;4.10;;
26718;SDS011;14326;50.794;6.060;2023-03-05T15:26:50;13.18;;;4.38;;
26718;SDS011;14326;50.794;6.060;2023-03-05T15:29:16;12.52;;;4.13;;
26718;SDS011;14326;50.794;6.060;2023-03-05T15:31:43;10.40;;;3.72;;
26718;SDS011;14326;50.794;6.060;2023-03-05T15:34:11;12.93;;;4.00;;
26718;SDS011;14326;50.794;6.060;2023-03-05T15:36:38;13.10;;;4.05;;
26718;SDS011;14326;50.794;6.060;2023-03-05T15:39:05;12.10;;;4.10;;
26718;SDS011;14326;50.794;6.060;2023-03-05T15:41:31;12.13;;;4.20;;
26718;SDS011;14326;50.794;6.060;2023-03-05T15:43:58;12.05;;;3.78;;
26718;SDS011;14326;50.794;6.060;2023-03-05T15:46:25;10.93;;;3.45;;
26718;SDS011;14326;50.794;6.060;2023-03-05T15:48:51;11.02;;;3.80;;
26718;SDS011;14326;50.794;6.060;2023-03-05T15:51:19;10.13;;;3.35;;
26718;SDS011;14326;50.794;6.060;2023-03-05T15:53:46;11.23;;;3.28;;
26718;SDS011;14326;50.794;6.060;2023-03-05T15:56:15;10.93;;;3.40;;
26718;SDS011;14326;50.794;6.060;2023-03-05T15:58:54;9.95;;;3.20;;
26718;SDS011;14326;50.794;6.060;2023-03-05T16:01:27;9.30;;;3.17;;
26718;SDS011;14326;50.794;6.060;2023-03-05T16:03:54;11.18;;;3.45;;
26718;SDS011;14326;50.794;6.060;2023-03-05T16:06:22;9.15;;;3.42;;
26718;SDS011;14326;50.794;6.060;2023-03-05T16:08:50;9.73;;;3.25;;
26718;SDS011;14326;50.794;6.060;2023-03-05T16:13:46;8.57;;;2.92;;
26718;SDS011;14326;50.794;6.060;2023-03-05T16:16:14;13.02;;;3.40;;